sensor_id;sensor_type;location;lat;lon;timestamp;P1;durP1;ratioP1;P2;durP2;ratioP2
8341;SDS011;4208;49.406;10.788;2022-09-25T00:02:05;21.83;;;16.92;;
8341;SDS011;4208;49.406;10.788;2022-09-25T00:04:34;25.27;;;15.95;;
8341;SDS011;4208;49.406;10.788;2022-09-25T00:07:02;20.33;;;15.65;;
8341;SDS011;4208;49.406;10.788;2022-09-25T00:09:31;22.77;;;17.20;;
8341;SDS011;4208;49.406;10.788;2022-09-25T00:12:00;22.75;;;18.23;;
8341;SDS011;4208;49.406;10.788;2022-09-25T00:14:30;22.52;;;18.05;;
8341;SDS011;4208;49.406;10.788;2022-09-25T00:16:58;21.80;;;18.23;;
8341;SDS011;4208;49.406;10.788;2022-09-25T00:19:27;23.35;;;16.73;;
8341;SDS011;4208;49.406;10.788;2022-09-25T00:22:13;20.02;;;15.73;;
8341;SDS011;4208;49.406;10.788;2022-09-25T00:24:42;22.35;;;18.33;;
8341;SDS011;4208;49.406;10.788;2022-09-25T00:27:11;24.58;;;18.50;;
8341;SDS011;4208;49.406;10.788;2022-09-25T00:29:42;24.10;;;18.27;;
8341;SDS011;4208;49.406;10.788;2022-09-25T00:32:11;23.23;;;18.55;;
8341;SDS011;4208;49.406;10.788;2022-09-25T00:34:39;25.05;;;17.67;;
8341;SDS011;4208;49.406;10.788;2022-09-25T00:37:08;25.17;;;19.40;;
8341;SDS011;4208;49.406;10.788;2022-09-25T00:39:37;24.05;;;18.55;;
8341;SDS011;4208;49.406;10.788;2022-09-25T00:42:05;26.05;;;18.98;;
8341;SDS011;4208;49.406;10.788;2022-09-25T00:44:52;24.75;;;18.98;;
8341;SDS011;4208;49.406;10.788;2022-09-25T00:47:27;26.83;;;19.52;;
8341;SDS011;4208;49.406;10.788;2022-09-25T00:50:10;28.23;;;21.25;;
8341;SDS011;4208;49.406;10.788;2022-09-25T00:52:44;24.83;;;18.02;;
8341;SDS011;4208;49.406;10.788;2022-09-25T00:55:14;21.35;;;16.42;;
8341;SDS011;4208;49.406;10.788;2022-09-25T00:57:45;20.58;;;16.70;;
8341;SDS011;4208;49.406;10.788;2022-09-25T01:00:18;21.60;;;17.60;;
8341;SDS011;4208;49.406;10.788;2022-09-25T01:02:48;22.17;;;18.20;;
8341;SDS011;4208;49.406;10.788;2022-09-25T01:05:20;22.55;;;17.60;;
8341;SDS011;4208;49.406;10.788;2022-09-25T01:07:52;24.65;;;18.05;;
8341;SDS011;4208;49.406;10.788;2022-09-25T01:10:24;21.20;;;16.88;;
8341;SDS011;4208;49.406;10.788;2022-09-25T01:12:54;23.17;;;17.70;;
8341;SDS011;4208;49.406;10.788;2022-09-25T01:15:27;25.40;;;19.92;;
8341;SDS011;4208;49.406;10.788;2022-09-25T01:18:04;25.80;;;19.52;;
8341;SDS011;4208;49.406;10.788;2022-09-25T01:20:47;28.55;;;21.13;;
8341;SDS011;4208;49.406;10.788;2022-09-25T01:23:29;31.95;;;21.13;;
8341;SDS011;4208;49.406;10.788;2022-09-25T01:26:17;35.05;;;22.23;;
8341;SDS011;4208;49.406;10.788;2022-09-25T01:29:02;34.20;;;22.10;;
8341;SDS011;4208;49.406;10.788;2022-09-25T01:31:37;30.98;;;21.00;;
8341;SDS011;4208;49.406;10.788;2022-09-25T01:34:11;30.45;;;20.52;;
8341;SDS011;4208;49.406;10.788;2022-09-25T01:36:47;27.75;;;20.48;;
8341;SDS011;4208;49.406;10.788;2022-09-25T01:39:20;31.75;;;20.73;;
8341;SDS011;4208;49.406;10.788;2022-09-25T01:41:56;37.78;;;21.85;;
8341;SDS011;4208;49.406;10.788;2022-09-25T01:44:30;30.00;;;19.45;;
8341;SDS011;4208;49.406;10.788;2022-09-25T01:47:04;27.27;;;18.88;;
8341;SDS011;4208;49.406;10.788;2022-09-25T01:49:39;36.55;;;20.30;;
8341;SDS011;4208;49.406;10.788;2022-09-25T01:52:12;29.25;;;20.77;;
8341;SDS011;4208;49.406;10.788;2022-09-25T01:54:44;34.22;;;22.83;;
8341;SDS011;4208;49.406;10.788;2022-09-25T01:57:18;35.40;;;23.42;;
8341;SDS011;4208;49.406;10.788;2022-09-25T01:59:52;37.92;;;24.27;;
8341;SDS011;4208;49.406;10.788;2022-09-25T02:02:25;37.33;;;24.63;;
8341;SDS011;4208;49.406;10.788;2022-09-25T02:04:57;31.27;;;22.98;;
8341;SDS011;4208;49.406;10.788;2022-09-25T02:07:33;30.98;;;20.27;;
8341;SDS011;4208;49.406;10.788;2022-09-25T02:10:07;34.97;;;21.08;;
8341;SDS011;4208;49.406;10.788;2022-09-25T02:12:40;29.58;;;21.48;;
8341;SDS011;4208;49.406;10.788;2022-09-25T02:15:15;33.78;;;22.13;;
8341;SDS011;4208;49.406;10.788;2022-09-25T02:17:47;31.70;;;20.88;;
8341;SDS011;4208;49.406;10.788;2022-09-25T02:20:38;31.38;;;20.73;;
8341;SDS011;4208;49.406;10.788;2022-09-25T02:23:10;44.42;;;21.08;;
8341;SDS011;4208;49.406;10.788;2022-09-25T02:25:45;32.22;;;20.63;;
8341;SDS011;4208;49.406;10.788;2022-09-25T02:28:18;33.65;;;20.70;;
8341;SDS011;4208;49.406;10.788;2022-09-25T02:30:48;33.15;;;20.65;;
8341;SDS011;4208;49.406;10.788;2022-09-25T02:33:20;32.22;;;21.17;;
8341;SDS011;4208;49.406;10.788;2022-09-25T02:35:48;31.73;;;21.33;;
8341;SDS011;4208;49.406;10.788;2022-09-25T02:38:17;33.25;;;21.23;;
8341;SDS011;4208;49.406;10.788;2022-09-25T02:40:47;32.75;;;23.67;;
8341;SDS011;4208;49.406;10.788;2022-09-25T02:43:24;34.30;;;23.73;;
8341;SDS011;4208;49.406;10.788;2022-09-25T02:46:07;33.42;;;23.27;;
8341;SDS011;4208;49.406;10.788;2022-09-25T02:48:43;32.78;;;23.88;;
8341;SDS011;4208;49.406;10.788;2022-09-25T02:51:19;33.08;;;23.60;;
8341;SDS011;4208;49.406;10.788;2022-09-25T02:53:58;33.55;;;24.77;;
8341;SDS011;4208;49.406;10.788;2022-09-25T02:56:34;36.83;;;25.20;;
8341;SDS011;4208;49.406;10.788;2022-09-25T02:59:08;31.55;;;24.48;;
8341;SDS011;4208;49.406;10.788;2022-09-25T03:01:43;31.52;;;23.67;;
8341;SDS011;4208;49.406;10.788;2022-09-25T03:04:13;38.13;;;26.50;;
8341;SDS011;4208;49.406;10.788;2022-09-25T03:06:43;40.63;;;28.33;;
8341;SDS011;4208;49.406;10.788;2022-09-25T03:09:12;37.20;;;27.60;;
8341;SDS011;4208;49.406;10.788;2022-09-25T03:11:44;40.92;;;28.83;;
8341;SDS011;4208;49.406;10.788;2022-09-25T03:14:12;38.65;;;28.27;;
8341;SDS011;4208;49.406;10.788;2022-09-25T03:16:43;43.08;;;28.33;;
8341;SDS011;4208;49.406;10.788;2022-09-25T03:19:14;39.63;;;27.75;;
8341;SDS011;4208;49.406;10.788;2022-09-25T03:21:45;39.13;;;29.10;;
8341;SDS011;4208;49.406;10.788;2022-09-25T03:24:14;41.60;;;29.17;;
8341;SDS011;4208;49.406;10.788;2022-09-25T03:26:43;39.83;;;27.67;;
8341;SDS011;4208;49.406;10.788;2022-09-25T03:29:13;38.08;;;28.02;;
8341;SDS011;4208;49.406;10.788;2022-09-25T03:31:44;32.97;;;24.70;;
8341;SDS011;4208;49.406;10.788;2022-09-25T03:34:13;36.85;;;26.95;;
8341;SDS011;4208;49.406;10.788;2022-09-25T03:36:44;37.00;;;26.75;;
8341;SDS011;4208;49.406;10.788;2022-09-25T03:39:14;35.47;;;25.98;;
8341;SDS011;4208;49.406;10.788;2022-09-25T03:41:44;36.15;;;26.63;;
8341;SDS011;4208;49.406;10.788;2022-09-25T03:44:13;37.28;;;26.05;;
8341;SDS011;4208;49.406;10.788;2022-09-25T03:46:42;36.30;;;25.73;;
8341;SDS011;4208;49.406;10.788;2022-09-25T03:49:12;34.67;;;24.58;;
8341;SDS011;4208;49.406;10.788;2022-09-25T03:51:40;34.15;;;25.77;;
8341;SDS011;4208;49.406;10.788;2022-09-25T03:54:09;33.78;;;25.02;;
8341;SDS011;4208;49.406;10.788;2022-09-25T03:56:38;34.45;;;22.70;;
8341;SDS011;4208;49.406;10.788;2022-09-25T03:59:07;32.33;;;23.85;;
8341;SDS011;4208;49.406;10.788;2022-09-25T04:01:36;33.70;;;23.77;;
8341;SDS011;4208;49.406;10.788;2022-09-25T04:04:04;34.25;;;25.10;;
8341;SDS011;4208;49.406;10.788;2022-09-25T04:06:34;33.92;;;25.52;;
8341;SDS011;4208;49.406;10.788;2022-09-25T04:09:03;34.67;;;25.27;;
8341;SDS011;4208;49.406;10.788;2022-09-25T04:11:31;39.47;;;27.55;;
8341;SDS011;4208;49.406;10.788;2022-09-25T04:14:00;36.08;;;26.50;;
8341;SDS011;4208;49.406;10.788;2022-09-25T04:16:29;32.67;;;25.52;;
8341;SDS011;4208;49.406;10.788;2022-09-25T04:18:58;32.75;;;24.73;;
8341;SDS011;4208;49.406;10.788;2022-09-25T04:21:26;33.47;;;25.33;;
8341;SDS011;4208;49.406;10.788;2022-09-25T04:23:56;32.67;;;24.50;;
8341;SDS011;4208;49.406;10.788;2022-09-25T04:26:42;33.08;;;24.63;;
8341;SDS011;4208;49.406;10.788;2022-09-25T04:29:12;32.78;;;24.00;;
8341;SDS011;4208;49.406;10.788;2022-09-25T04:31:41;31.65;;;24.55;;
8341;SDS011;4208;49.406;10.788;2022-09-25T04:34:09;31.70;;;24.15;;
8341;SDS011;4208;49.406;10.788;2022-09-25T04:36:37;31.60;;;23.70;;
8341;SDS011;4208;49.406;10.788;2022-09-25T04:39:08;34.90;;;25.63;;
8341;SDS011;4208;49.406;10.788;2022-09-25T04:41:37;33.28;;;25.15;;
8341;SDS011;4208;49.406;10.788;2022-09-25T04:44:05;31.88;;;24.48;;
8341;SDS011;4208;49.406;10.788;2022-09-25T04:46:34;33.00;;;25.20;;
8341;SDS011;4208;49.406;10.788;2022-09-25T04:49:03;33.83;;;25.30;;
8341;SDS011;4208;49.406;10.788;2022-09-25T04:51:32;34.17;;;25.00;;
8341;SDS011;4208;49.406;10.788;2022-09-25T04:54:01;38.28;;;27.00;;
8341;SDS011;4208;49.406;10.788;2022-09-25T04:56:31;37.33;;;26.52;;
8341;SDS011;4208;49.406;10.788;2022-09-25T04:58:59;34.78;;;26.20;;
8341;SDS011;4208;49.406;10.788;2022-09-25T05:01:28;35.13;;;25.67;;
8341;SDS011;4208;49.406;10.788;2022-09-25T05:04:00;34.55;;;25.85;;
8341;SDS011;4208;49.406;10.788;2022-09-25T05:06:34;34.08;;;25.65;;
8341;SDS011;4208;49.406;10.788;2022-09-25T05:09:03;35.67;;;25.58;;
8341;SDS011;4208;49.406;10.788;2022-09-25T05:11:33;35.40;;;25.50;;
8341;SDS011;4208;49.406;10.788;2022-09-25T05:14:01;36.88;;;25.58;;
8341;SDS011;4208;49.406;10.788;2022-09-25T05:16:30;36.88;;;27.30;;
8341;SDS011;4208;49.406;10.788;2022-09-25T05:18:58;36.08;;;25.77;;
8341;SDS011;4208;49.406;10.788;2022-09-25T05:21:27;35.75;;;26.60;;
8341;SDS011;4208;49.406;10.788;2022-09-25T05:23:55;35.28;;;26.65;;
8341;SDS011;4208;49.406;10.788;2022-09-25T05:26:25;36.10;;;27.85;;
8341;SDS011;4208;49.406;10.788;2022-09-25T05:28:57;36.20;;;26.60;;
8341;SDS011;4208;49.406;10.788;2022-09-25T05:31:25;35.50;;;26.95;;
8341;SDS011;4208;49.406;10.788;2022-09-25T05:33:55;36.45;;;26.08;;
8341;SDS011;4208;49.406;10.788;2022-09-25T05:36:24;29.77;;;24.00;;
8341;SDS011;4208;49.406;10.788;2022-09-25T05:38:52;32.60;;;24.85;;
8341;SDS011;4208;49.406;10.788;2022-09-25T05:41:21;33.28;;;25.30;;
8341;SDS011;4208;49.406;10.788;2022-09-25T05:43:50;33.15;;;25.80;;
8341;SDS011;4208;49.406;10.788;2022-09-25T05:46:22;33.03;;;25.15;;
8341;SDS011;4208;49.406;10.788;2022-09-25T05:48:51;35.80;;;25.60;;
8341;SDS011;4208;49.406;10.788;2022-09-25T05:51:19;35.13;;;25.48;;
8341;SDS011;4208;49.406;10.788;2022-09-25T05:53:48;34.08;;;23.45;;
8341;SDS011;4208;49.406;10.788;2022-09-25T05:56:16;33.22;;;24.10;;
8341;SDS011;4208;49.406;10.788;2022-09-25T05:58:45;33.97;;;24.70;;
8341;SDS011;4208;49.406;10.788;2022-09-25T06:01:14;36.15;;;24.70;;
8341;SDS011;4208;49.406;10.788;2022-09-25T06:03:44;34.17;;;23.42;;
8341;SDS011;4208;49.406;10.788;2022-09-25T06:06:13;35.22;;;24.73;;
8341;SDS011;4208;49.406;10.788;2022-09-25T06:08:41;34.47;;;24.98;;
8341;SDS011;4208;49.406;10.788;2022-09-25T06:11:10;34.25;;;23.92;;
8341;SDS011;4208;49.406;10.788;2022-09-25T06:13:38;34.65;;;24.98;;
8341;SDS011;4208;49.406;10.788;2022-09-25T06:16:17;32.78;;;23.60;;
8341;SDS011;4208;49.406;10.788;2022-09-25T06:18:47;36.45;;;26.40;;
8341;SDS011;4208;49.406;10.788;2022-09-25T06:21:17;35.97;;;25.80;;
8341;SDS011;4208;49.406;10.788;2022-09-25T06:23:45;37.30;;;25.85;;
8341;SDS011;4208;49.406;10.788;2022-09-25T06:26:14;44.00;;;31.35;;
8341;SDS011;4208;49.406;10.788;2022-09-25T06:28:43;44.97;;;29.95;;
8341;SDS011;4208;49.406;10.788;2022-09-25T06:31:11;40.35;;;28.90;;
8341;SDS011;4208;49.406;10.788;2022-09-25T06:33:40;44.35;;;29.92;;
8341;SDS011;4208;49.406;10.788;2022-09-25T06:36:11;41.65;;;28.63;;
8341;SDS011;4208;49.406;10.788;2022-09-25T06:38:40;45.45;;;30.52;;
8341;SDS011;4208;49.406;10.788;2022-09-25T06:41:09;44.60;;;29.35;;
8341;SDS011;4208;49.406;10.788;2022-09-25T06:43:38;42.15;;;29.38;;
8341;SDS011;4208;49.406;10.788;2022-09-25T06:46:07;43.08;;;29.98;;
8341;SDS011;4208;49.406;10.788;2022-09-25T06:48:36;45.22;;;28.85;;
8341;SDS011;4208;49.406;10.788;2022-09-25T06:51:06;44.78;;;30.42;;
8341;SDS011;4208;49.406;10.788;2022-09-25T06:53:36;48.08;;;30.15;;
8341;SDS011;4208;49.406;10.788;2022-09-25T06:56:05;44.58;;;30.45;;
8341;SDS011;4208;49.406;10.788;2022-09-25T06:58:34;48.97;;;32.42;;
8341;SDS011;4208;49.406;10.788;2022-09-25T07:01:03;46.05;;;28.92;;
8341;SDS011;4208;49.406;10.788;2022-09-25T07:03:36;46.45;;;30.00;;
8341;SDS011;4208;49.406;10.788;2022-09-25T07:06:14;49.10;;;32.78;;
8341;SDS011;4208;49.406;10.788;2022-09-25T07:08:45;52.22;;;33.88;;
8341;SDS011;4208;49.406;10.788;2022-09-25T07:11:15;51.17;;;33.63;;
8341;SDS011;4208;49.406;10.788;2022-09-25T07:13:46;44.65;;;28.92;;
8341;SDS011;4208;49.406;10.788;2022-09-25T07:16:18;46.97;;;31.08;;
8341;SDS011;4208;49.406;10.788;2022-09-25T07:18:48;44.28;;;29.60;;
8341;SDS011;4208;49.406;10.788;2022-09-25T07:21:19;40.70;;;29.60;;
8341;SDS011;4208;49.406;10.788;2022-09-25T07:23:51;44.88;;;30.48;;
8341;SDS011;4208;49.406;10.788;2022-09-25T07:26:20;44.40;;;29.42;;
8341;SDS011;4208;49.406;10.788;2022-09-25T07:28:52;50.30;;;31.13;;
8341;SDS011;4208;49.406;10.788;2022-09-25T07:31:22;47.72;;;30.83;;
8341;SDS011;4208;49.406;10.788;2022-09-25T07:33:52;47.30;;;29.88;;
8341;SDS011;4208;49.406;10.788;2022-09-25T07:36:22;50.92;;;32.53;;
8341;SDS011;4208;49.406;10.788;2022-09-25T07:38:52;44.67;;;30.20;;
8341;SDS011;4208;49.406;10.788;2022-09-25T07:41:21;44.38;;;29.40;;
8341;SDS011;4208;49.406;10.788;2022-09-25T07:43:53;47.78;;;29.98;;
8341;SDS011;4208;49.406;10.788;2022-09-25T07:46:43;46.72;;;29.92;;
8341;SDS011;4208;49.406;10.788;2022-09-25T07:49:12;41.88;;;28.42;;
8341;SDS011;4208;49.406;10.788;2022-09-25T07:51:41;43.75;;;27.58;;
8341;SDS011;4208;49.406;10.788;2022-09-25T07:54:11;46.75;;;29.00;;
8341;SDS011;4208;49.406;10.788;2022-09-25T07:56:39;43.60;;;27.40;;
8341;SDS011;4208;49.406;10.788;2022-09-25T07:59:08;41.80;;;28.20;;
8341;SDS011;4208;49.406;10.788;2022-09-25T08:01:37;39.28;;;25.75;;
8341;SDS011;4208;49.406;10.788;2022-09-25T08:04:10;39.22;;;24.08;;
8341;SDS011;4208;49.406;10.788;2022-09-25T08:06:40;33.92;;;23.42;;
8341;SDS011;4208;49.406;10.788;2022-09-25T08:09:10;38.13;;;25.17;;
8341;SDS011;4208;49.406;10.788;2022-09-25T08:11:39;37.70;;;23.65;;
8341;SDS011;4208;49.406;10.788;2022-09-25T08:14:07;36.33;;;24.45;;
8341;SDS011;4208;49.406;10.788;2022-09-25T08:16:40;33.40;;;22.25;;
8341;SDS011;4208;49.406;10.788;2022-09-25T08:19:09;29.98;;;21.02;;
8341;SDS011;4208;49.406;10.788;2022-09-25T08:21:38;34.58;;;22.40;;
8341;SDS011;4208;49.406;10.788;2022-09-25T08:24:07;28.80;;;21.42;;
8341;SDS011;4208;49.406;10.788;2022-09-25T08:26:38;26.10;;;18.13;;
8341;SDS011;4208;49.406;10.788;2022-09-25T08:29:06;27.88;;;19.83;;
8341;SDS011;4208;49.406;10.788;2022-09-25T08:31:39;28.90;;;21.13;;
8341;SDS011;4208;49.406;10.788;2022-09-25T08:34:09;27.67;;;19.75;;
8341;SDS011;4208;49.406;10.788;2022-09-25T08:37:00;28.38;;;19.98;;
8341;SDS011;4208;49.406;10.788;2022-09-25T08:39:31;29.10;;;21.23;;
8341;SDS011;4208;49.406;10.788;2022-09-25T08:42:03;29.27;;;20.88;;
8341;SDS011;4208;49.406;10.788;2022-09-25T08:44:35;27.23;;;19.38;;
8341;SDS011;4208;49.406;10.788;2022-09-25T08:47:23;28.30;;;20.20;;
8341;SDS011;4208;49.406;10.788;2022-09-25T08:50:12;29.55;;;19.95;;
8341;SDS011;4208;49.406;10.788;2022-09-25T08:52:47;25.85;;;19.63;;
8341;SDS011;4208;49.406;10.788;2022-09-25T08:55:21;26.73;;;18.92;;
8341;SDS011;4208;49.406;10.788;2022-09-25T08:58:19;28.23;;;19.30;;
8341;SDS011;4208;49.406;10.788;2022-09-25T09:00:52;24.77;;;18.35;;
8341;SDS011;4208;49.406;10.788;2022-09-25T09:03:25;21.77;;;16.42;;
8341;SDS011;4208;49.406;10.788;2022-09-25T09:05:58;23.77;;;16.98;;
8341;SDS011;4208;49.406;10.788;2022-09-25T09:08:32;23.15;;;16.58;;
8341;SDS011;4208;49.406;10.788;2022-09-25T09:11:05;22.40;;;16.20;;
8341;SDS011;4208;49.406;10.788;2022-09-25T09:13:42;22.95;;;16.45;;
8341;SDS011;4208;49.406;10.788;2022-09-25T09:16:20;21.27;;;16.17;;
8341;SDS011;4208;49.406;10.788;2022-09-25T09:18:56;23.63;;;16.40;;
8341;SDS011;4208;49.406;10.788;2022-09-25T09:21:32;21.38;;;16.88;;
8341;SDS011;4208;49.406;10.788;2022-09-25T09:24:07;21.00;;;16.30;;
8341;SDS011;4208;49.406;10.788;2022-09-25T09:27:04;22.88;;;16.42;;
8341;SDS011;4208;49.406;10.788;2022-09-25T09:30:00;23.73;;;18.55;;
8341;SDS011;4208;49.406;10.788;2022-09-25T09:32:40;20.15;;;15.57;;
8341;SDS011;4208;49.406;10.788;2022-09-25T09:35:19;19.13;;;14.73;;
8341;SDS011;4208;49.406;10.788;2022-09-25T09:38:02;19.67;;;14.40;;
8341;SDS011;4208;49.406;10.788;2022-09-25T09:40:42;19.40;;;15.25;;
8341;SDS011;4208;49.406;10.788;2022-09-25T09:43:35;23.45;;;16.58;;
8341;SDS011;4208;49.406;10.788;2022-09-25T09:46:26;21.27;;;16.00;;
8341;SDS011;4208;49.406;10.788;2022-09-25T09:49:08;27.50;;;18.80;;
8341;SDS011;4208;49.406;10.788;2022-09-25T09:51:41;28.27;;;19.58;;
8341;SDS011;4208;49.406;10.788;2022-09-25T09:54:14;26.98;;;19.20;;
8341;SDS011;4208;49.406;10.788;2022-09-25T09:56:49;22.42;;;15.57;;
8341;SDS011;4208;49.406;10.788;2022-09-25T09:59:20;20.73;;;14.45;;
8341;SDS011;4208;49.406;10.788;2022-09-25T10:01:57;23.38;;;18.83;;
8341;SDS011;4208;49.406;10.788;2022-09-25T10:04:30;22.92;;;14.77;;
8341;SDS011;4208;49.406;10.788;2022-09-25T10:07:03;18.67;;;14.25;;
8341;SDS011;4208;49.406;10.788;2022-09-25T10:09:35;17.35;;;13.13;;
8341;SDS011;4208;49.406;10.788;2022-09-25T10:12:05;18.13;;;13.90;;
8341;SDS011;4208;49.406;10.788;2022-09-25T10:14:41;14.07;;;10.27;;
8341;SDS011;4208;49.406;10.788;2022-09-25T10:17:14;14.35;;;11.98;;
8341;SDS011;4208;49.406;10.788;2022-09-25T10:19:46;14.07;;;10.80;;
8341;SDS011;4208;49.406;10.788;2022-09-25T10:22:18;11.20;;;9.13;;
8341;SDS011;4208;49.406;10.788;2022-09-25T10:24:53;11.90;;;10.13;;
8341;SDS011;4208;49.406;10.788;2022-09-25T10:27:25;11.85;;;8.95;;
8341;SDS011;4208;49.406;10.788;2022-09-25T10:30:03;14.63;;;10.32;;
8341;SDS011;4208;49.406;10.788;2022-09-25T10:32:47;12.18;;;9.75;;
8341;SDS011;4208;49.406;10.788;2022-09-25T10:35:26;14.85;;;11.63;;
8341;SDS011;4208;49.406;10.788;2022-09-25T10:37:56;10.82;;;8.60;;
8341;SDS011;4208;49.406;10.788;2022-09-25T10:40:28;9.77;;;8.73;;
8341;SDS011;4208;49.406;10.788;2022-09-25T10:43:04;11.50;;;9.05;;
8341;SDS011;4208;49.406;10.788;2022-09-25T10:45:43;11.60;;;9.25;;
8341;SDS011;4208;49.406;10.788;2022-09-25T10:48:29;12.00;;;10.20;;
8341;SDS011;4208;49.406;10.788;2022-09-25T10:51:18;19.85;;;12.30;;
8341;SDS011;4208;49.406;10.788;2022-09-25T10:53:48;14.95;;;10.82;;
8341;SDS011;4208;49.406;10.788;2022-09-25T10:56:19;17.27;;;10.82;;
8341;SDS011;4208;49.406;10.788;2022-09-25T10:58:53;16.80;;;11.98;;
8341;SDS011;4208;49.406;10.788;2022-09-25T11:01:28;17.05;;;12.68;;
8341;SDS011;4208;49.406;10.788;2022-09-25T11:04:04;18.85;;;13.05;;
8341;SDS011;4208;49.406;10.788;2022-09-25T11:06:41;17.45;;;13.35;;
8341;SDS011;4208;49.406;10.788;2022-09-25T11:09:12;20.17;;;14.32;;
8341;SDS011;4208;49.406;10.788;2022-09-25T11:11:43;20.92;;;15.77;;
8341;SDS011;4208;49.406;10.788;2022-09-25T11:14:19;20.77;;;15.25;;
8341;SDS011;4208;49.406;10.788;2022-09-25T11:16:54;18.42;;;15.38;;
8341;SDS011;4208;49.406;10.788;2022-09-25T11:19:26;22.52;;;16.17;;
8341;SDS011;4208;49.406;10.788;2022-09-25T11:22:01;19.60;;;16.42;;
8341;SDS011;4208;49.406;10.788;2022-09-25T11:24:39;21.70;;;15.70;;
8341;SDS011;4208;49.406;10.788;2022-09-25T11:27:13;18.13;;;14.35;;
8341;SDS011;4208;49.406;10.788;2022-09-25T11:29:48;22.73;;;16.60;;
8341;SDS011;4208;49.406;10.788;2022-09-25T11:32:25;27.98;;;19.58;;
8341;SDS011;4208;49.406;10.788;2022-09-25T11:35:11;24.17;;;18.20;;
8341;SDS011;4208;49.406;10.788;2022-09-25T11:37:55;25.60;;;18.77;;
8341;SDS011;4208;49.406;10.788;2022-09-25T11:40:33;27.60;;;19.45;;
8341;SDS011;4208;49.406;10.788;2022-09-25T11:43:29;20.85;;;16.83;;
8341;SDS011;4208;49.406;10.788;2022-09-25T11:46:06;20.80;;;15.75;;
8341;SDS011;4208;49.406;10.788;2022-09-25T11:48:48;19.35;;;15.70;;
8341;SDS011;4208;49.406;10.788;2022-09-25T11:51:27;19.38;;;14.82;;
8341;SDS011;4208;49.406;10.788;2022-09-25T11:54:10;20.45;;;15.82;;
8341;SDS011;4208;49.406;10.788;2022-09-25T11:57:02;21.02;;;15.60;;
8341;SDS011;4208;49.406;10.788;2022-09-25T11:59:41;20.48;;;14.45;;
8341;SDS011;4208;49.406;10.788;2022-09-25T12:02:27;20.73;;;15.02;;
8341;SDS011;4208;49.406;10.788;2022-09-25T12:08:10;20.15;;;15.98;;
8341;SDS011;4208;49.406;10.788;2022-09-25T12:10:53;21.75;;;16.98;;
8341;SDS011;4208;49.406;10.788;2022-09-25T12:13:31;23.48;;;17.60;;
8341;SDS011;4208;49.406;10.788;2022-09-25T12:16:09;21.10;;;16.48;;
8341;SDS011;4208;49.406;10.788;2022-09-25T12:21:38;23.23;;;17.08;;
8341;SDS011;4208;49.406;10.788;2022-09-25T12:24:17;22.55;;;16.50;;
8341;SDS011;4208;49.406;10.788;2022-09-25T12:27:02;28.15;;;19.10;;
8341;SDS011;4208;49.406;10.788;2022-09-25T12:29:47;22.70;;;18.75;;
8341;SDS011;4208;49.406;10.788;2022-09-25T12:32:46;23.20;;;17.58;;
8341;SDS011;4208;49.406;10.788;2022-09-25T12:35:34;19.33;;;13.70;;
8341;SDS011;4208;49.406;10.788;2022-09-25T12:38:09;16.90;;;13.38;;
8341;SDS011;4208;49.406;10.788;2022-09-25T12:40:50;22.20;;;15.45;;
8341;SDS011;4208;49.406;10.788;2022-09-25T12:43:27;20.90;;;15.52;;
8341;SDS011;4208;49.406;10.788;2022-09-25T12:46:05;21.65;;;14.73;;
8341;SDS011;4208;49.406;10.788;2022-09-25T12:48:38;20.55;;;15.07;;
8341;SDS011;4208;49.406;10.788;2022-09-25T12:51:13;22.67;;;15.32;;
8341;SDS011;4208;49.406;10.788;2022-09-25T12:53:48;23.83;;;16.13;;
8341;SDS011;4208;49.406;10.788;2022-09-25T12:56:24;21.00;;;14.95;;
8341;SDS011;4208;49.406;10.788;2022-09-25T12:58:59;18.67;;;14.07;;
8341;SDS011;4208;49.406;10.788;2022-09-25T13:01:36;17.40;;;12.30;;
8341;SDS011;4208;49.406;10.788;2022-09-25T13:04:19;18.40;;;14.48;;
8341;SDS011;4208;49.406;10.788;2022-09-25T13:07:02;18.85;;;13.77;;
8341;SDS011;4208;49.406;10.788;2022-09-25T13:09:40;17.00;;;12.85;;
8341;SDS011;4208;49.406;10.788;2022-09-25T13:12:15;17.52;;;13.15;;
8341;SDS011;4208;49.406;10.788;2022-09-25T13:14:51;19.55;;;14.00;;
8341;SDS011;4208;49.406;10.788;2022-09-25T13:17:23;17.85;;;13.40;;
8341;SDS011;4208;49.406;10.788;2022-09-25T13:19:51;19.92;;;14.05;;
8341;SDS011;4208;49.406;10.788;2022-09-25T13:22:21;18.60;;;14.00;;
8341;SDS011;4208;49.406;10.788;2022-09-25T13:24:53;17.52;;;13.50;;
8341;SDS011;4208;49.406;10.788;2022-09-25T13:27:30;17.20;;;13.70;;
8341;SDS011;4208;49.406;10.788;2022-09-25T13:30:17;21.20;;;15.15;;
8341;SDS011;4208;49.406;10.788;2022-09-25T13:32:47;19.13;;;13.32;;
8341;SDS011;4208;49.406;10.788;2022-09-25T13:35:19;18.98;;;13.05;;
8341;SDS011;4208;49.406;10.788;2022-09-25T13:37:49;18.13;;;13.35;;
8341;SDS011;4208;49.406;10.788;2022-09-25T13:40:22;15.75;;;12.50;;
8341;SDS011;4208;49.406;10.788;2022-09-25T13:43:17;20.65;;;13.57;;
8341;SDS011;4208;49.406;10.788;2022-09-25T13:45:48;15.20;;;11.13;;
8341;SDS011;4208;49.406;10.788;2022-09-25T13:48:51;15.98;;;12.23;;
8341;SDS011;4208;49.406;10.788;2022-09-25T13:51:25;14.88;;;10.65;;
8341;SDS011;4208;49.406;10.788;2022-09-25T13:54:01;16.08;;;11.80;;
8341;SDS011;4208;49.406;10.788;2022-09-25T13:56:44;16.55;;;11.38;;
8341;SDS011;4208;49.406;10.788;2022-09-25T14:04:59;13.82;;;10.45;;
8341;SDS011;4208;49.406;10.788;2022-09-25T14:07:28;14.45;;;11.05;;
8341;SDS011;4208;49.406;10.788;2022-09-25T14:09:57;14.95;;;11.30;;
8341;SDS011;4208;49.406;10.788;2022-09-25T14:12:31;16.88;;;11.63;;
8341;SDS011;4208;49.406;10.788;2022-09-25T14:15:20;16.02;;;11.55;;
8341;SDS011;4208;49.406;10.788;2022-09-25T14:17:53;15.43;;;12.00;;
8341;SDS011;4208;49.406;10.788;2022-09-25T14:20:31;16.73;;;12.88;;
8341;SDS011;4208;49.406;10.788;2022-09-25T14:23:03;18.98;;;13.73;;
8341;SDS011;4208;49.406;10.788;2022-09-25T14:25:38;13.32;;;11.93;;
8341;SDS011;4208;49.406;10.788;2022-09-25T14:28:17;14.52;;;11.65;;
8341;SDS011;4208;49.406;10.788;2022-09-25T14:30:55;17.00;;;11.60;;
8341;SDS011;4208;49.406;10.788;2022-09-25T14:33:55;15.73;;;12.57;;
8341;SDS011;4208;49.406;10.788;2022-09-25T14:36:46;16.38;;;12.00;;
8341;SDS011;4208;49.406;10.788;2022-09-25T14:39:28;13.23;;;10.43;;
8341;SDS011;4208;49.406;10.788;2022-09-25T14:42:13;14.55;;;11.18;;
8341;SDS011;4208;49.406;10.788;2022-09-25T14:45:06;12.05;;;10.65;;
8341;SDS011;4208;49.406;10.788;2022-09-25T14:48:02;15.98;;;13.55;;
8341;SDS011;4208;49.406;10.788;2022-09-25T14:50:36;12.02;;;10.70;;
8341;SDS011;4208;49.406;10.788;2022-09-25T14:53:10;13.55;;;10.95;;
8341;SDS011;4208;49.406;10.788;2022-09-25T14:55:43;12.55;;;9.43;;
8341;SDS011;4208;49.406;10.788;2022-09-25T14:58:17;11.65;;;8.45;;
8341;SDS011;4208;49.406;10.788;2022-09-25T15:00:49;10.43;;;8.40;;
8341;SDS011;4208;49.406;10.788;2022-09-25T15:03:30;10.77;;;9.20;;
8341;SDS011;4208;49.406;10.788;2022-09-25T15:06:08;11.20;;;8.85;;
8341;SDS011;4208;49.406;10.788;2022-09-25T15:08:42;10.80;;;8.30;;
8341;SDS011;4208;49.406;10.788;2022-09-25T15:11:12;9.02;;;7.63;;
8341;SDS011;4208;49.406;10.788;2022-09-25T15:13:42;10.77;;;8.10;;
8341;SDS011;4208;49.406;10.788;2022-09-25T15:16:13;9.73;;;8.38;;
8341;SDS011;4208;49.406;10.788;2022-09-25T15:19:06;12.07;;;8.30;;
8341;SDS011;4208;49.406;10.788;2022-09-25T15:21:42;10.63;;;9.13;;
8341;SDS011;4208;49.406;10.788;2022-09-25T15:24:12;8.60;;;7.63;;
8341;SDS011;4208;49.406;10.788;2022-09-25T15:26:45;10.90;;;8.38;;
8341;SDS011;4208;49.406;10.788;2022-09-25T15:29:17;9.38;;;7.75;;